sensor_id;sensor_type;location;lat;lon;timestamp;temperature;humidity
42147;DHT22;27815;43.410;11.852;2023-02-18T00:02:39;8.70;66.90
42147;DHT22;27815;43.410;11.852;2023-02-18T00:06:42;8.30;67.10
42147;DHT22;27815;43.410;11.852;2023-02-18T00:10:46;8.00;67.30
42147;DHT22;27815;43.410;11.852;2023-02-18T00:14:49;7.80;67.50
42147;DHT22;27815;43.410;11.852;2023-02-18T00:19:01;7.70;67.70
42147;DHT22;27815;43.410;11.852;2023-02-18T00:23:04;7.70;68.10
42147;DHT22;27815;43.410;11.852;2023-02-18T00:27:07;7.70;68.20
42147;DHT22;27815;43.410;11.852;2023-02-18T00:31:22;7.80;68.20
42147;DHT22;27815;43.410;11.852;2023-02-18T00:35:26;7.70;68.40
42147;DHT22;27815;43.410;11.852;2023-02-18T00:39:29;7.70;68.20
42147;DHT22;27815;43.410;11.852;2023-02-18T00:43:32;7.60;68.40
42147;DHT22;27815;43.410;11.852;2023-02-18T00:47:36;7.50;68.40
42147;DHT22;27815;43.410;11.852;2023-02-18T00:51:39;7.60;68.20
42147;DHT22;27815;43.410;11.852;2023-02-18T00:55:44;7.60;68.20
42147;DHT22;27815;43.410;11.852;2023-02-18T00:59:47;7.30;68.50
42147;DHT22;27815;43.410;11.852;2023-02-18T01:03:50;7.30;68.50
42147;DHT22;27815;43.410;11.852;2023-02-18T01:07:53;7.30;68.40
42147;DHT22;27815;43.410;11.852;2023-02-18T01:11:57;7.20;68.60
42147;DHT22;27815;43.410;11.852;2023-02-18T01:15:59;7.20;68.60
42147;DHT22;27815;43.410;11.852;2023-02-18T01:20:04;7.10;68.90
42147;DHT22;27815;43.410;11.852;2023-02-18T01:24:09;7.00;69.10
42147;DHT22;27815;43.410;11.852;2023-02-18T01:28:13;7.00;69.20
42147;DHT22;27815;43.410;11.852;2023-02-18T01:32:16;7.00;69.20
42147;DHT22;27815;43.410;11.852;2023-02-18T01:36:20;7.00;69.20
42147;DHT22;27815;43.410;11.852;2023-02-18T01:40:26;7.00;69.30
42147;DHT22;27815;43.410;11.852;2023-02-18T01:44:32;7.00;69.50
42147;DHT22;27815;43.410;11.852;2023-02-18T01:52:41;6.90;69.30
42147;DHT22;27815;43.410;11.852;2023-02-18T01:56:49;6.90;69.60
42147;DHT22;27815;43.410;11.852;2023-02-18T02:00:52;6.90;69.80
42147;DHT22;27815;43.410;11.852;2023-02-18T02:04:57;6.90;69.60
42147;DHT22;27815;43.410;11.852;2023-02-18T02:09:02;7.00;69.60
42147;DHT22;27815;43.410;11.852;2023-02-18T02:17:40;7.00;70.10
42147;DHT22;27815;43.410;11.852;2023-02-18T02:22:02;6.90;70.30
42147;DHT22;27815;43.410;11.852;2023-02-18T02:35:34;7.00;70.10
42147;DHT22;27815;43.410;11.852;2023-02-18T02:44:20;6.80;70.60
42147;DHT22;27815;43.410;11.852;2023-02-18T02:52:57;6.90;70.60
42147;DHT22;27815;43.410;11.852;2023-02-18T03:14:50;6.90;70.40
42147;DHT22;27815;43.410;11.852;2023-02-18T03:23:10;7.00;70.20
42147;DHT22;27815;43.410;11.852;2023-02-18T03:31:25;7.10;70.80
42147;DHT22;27815;43.410;11.852;2023-02-18T03:35:29;7.10;70.50
42147;DHT22;27815;43.410;11.852;2023-02-18T03:39:34;7.20;70.30
42147;DHT22;27815;43.410;11.852;2023-02-18T03:43:40;7.10;70.80
42147;DHT22;27815;43.410;11.852;2023-02-18T03:47:43;7.10;70.70
42147;DHT22;27815;43.410;11.852;2023-02-18T03:51:45;7.10;70.60
42147;DHT22;27815;43.410;11.852;2023-02-18T03:55:48;7.00;70.70
42147;DHT22;27815;43.410;11.852;2023-02-18T03:59:51;7.00;70.70
42147;DHT22;27815;43.410;11.852;2023-02-18T04:03:54;7.00;70.70
42147;DHT22;27815;43.410;11.852;2023-02-18T04:07:57;7.00;70.80
42147;DHT22;27815;43.410;11.852;2023-02-18T04:12:00;6.90;70.90
42147;DHT22;27815;43.410;11.852;2023-02-18T04:16:03;6.80;70.90
42147;DHT22;27815;43.410;11.852;2023-02-18T04:20:06;6.80;71.00
42147;DHT22;27815;43.410;11.852;2023-02-18T04:24:09;6.90;70.90
42147;DHT22;27815;43.410;11.852;2023-02-18T04:28:14;6.90;71.00
42147;DHT22;27815;43.410;11.852;2023-02-18T04:32:18;7.00;71.00
42147;DHT22;27815;43.410;11.852;2023-02-18T04:36:20;6.90;70.90
42147;DHT22;27815;43.410;11.852;2023-02-18T04:40:23;7.00;71.00
42147;DHT22;27815;43.410;11.852;2023-02-18T04:44:32;6.90;71.40
42147;DHT22;27815;43.410;11.852;2023-02-18T04:48:34;7.00;71.40
42147;DHT22;27815;43.410;11.852;2023-02-18T04:52:37;7.00;71.20
42147;DHT22;27815;43.410;11.852;2023-02-18T04:56:40;7.00;71.20
42147;DHT22;27815;43.410;11.852;2023-02-18T05:00:43;7.00;71.20
42147;DHT22;27815;43.410;11.852;2023-02-18T05:04:46;7.10;71.10
42147;DHT22;27815;43.410;11.852;2023-02-18T05:08:49;7.10;71.10
42147;DHT22;27815;43.410;11.852;2023-02-18T05:12:52;7.10;71.00
42147;DHT22;27815;43.410;11.852;2023-02-18T05:16:54;7.10;70.90
42147;DHT22;27815;43.410;11.852;2023-02-18T05:20:57;7.10;70.90
42147;DHT22;27815;43.410;11.852;2023-02-18T05:25:01;7.20;71.00
42147;DHT22;27815;43.410;11.852;2023-02-18T05:29:04;7.20;70.90
42147;DHT22;27815;43.410;11.852;2023-02-18T05:33:07;7.30;70.80
42147;DHT22;27815;43.410;11.852;2023-02-18T05:37:10;7.40;70.70
42147;DHT22;27815;43.410;11.852;2023-02-18T05:41:14;7.50;70.60
42147;DHT22;27815;43.410;11.852;2023-02-18T05:45:17;7.50;70.60
42147;DHT22;27815;43.410;11.852;2023-02-18T05:49:20;7.40;70.80
42147;DHT22;27815;43.410;11.852;2023-02-18T05:53:22;7.30;71.00
42147;DHT22;27815;43.410;11.852;2023-02-18T05:57:25;7.40;70.90
42147;DHT22;27815;43.410;11.852;2023-02-18T06:01:29;7.40;70.90
42147;DHT22;27815;43.410;11.852;2023-02-18T06:05:32;7.40;70.80
42147;DHT22;27815;43.410;11.852;2023-02-18T06:09:35;7.40;70.80
42147;DHT22;27815;43.410;11.852;2023-02-18T06:13:38;7.30;70.90
42147;DHT22;27815;43.410;11.852;2023-02-18T06:17:41;7.30;70.90
42147;DHT22;27815;43.410;11.852;2023-02-18T06:21:44;7.40;70.90
42147;DHT22;27815;43.410;11.852;2023-02-18T06:25:51;7.30;71.10
42147;DHT22;27815;43.410;11.852;2023-02-18T06:29:54;7.40;71.00
42147;DHT22;27815;43.410;11.852;2023-02-18T06:33:56;7.40;71.00
42147;DHT22;27815;43.410;11.852;2023-02-18T06:37:59;7.40;71.00
42147;DHT22;27815;43.410;11.852;2023-02-18T06:42:02;7.40;71.00
42147;DHT22;27815;43.410;11.852;2023-02-18T06:46:05;7.40;71.00
42147;DHT22;27815;43.410;11.852;2023-02-18T06:50:09;7.40;71.10
42147;DHT22;27815;43.410;11.852;2023-02-18T06:54:12;7.50;71.00
42147;DHT22;27815;43.410;11.852;2023-02-18T06:58:15;7.60;70.80
42147;DHT22;27815;43.410;11.852;2023-02-18T07:02:19;7.60;70.90
42147;DHT22;27815;43.410;11.852;2023-02-18T07:06:22;7.70;70.70
42147;DHT22;27815;43.410;11.852;2023-02-18T07:10:25;7.70;70.80
42147;DHT22;27815;43.410;11.852;2023-02-18T07:14:29;7.80;70.80
42147;DHT22;27815;43.410;11.852;2023-02-18T07:18:32;7.80;70.70
42147;DHT22;27815;43.410;11.852;2023-02-18T07:22:36;7.90;70.60
42147;DHT22;27815;43.410;11.852;2023-02-18T07:26:40;8.00;70.50
42147;DHT22;27815;43.410;11.852;2023-02-18T07:30:45;8.00;70.50
42147;DHT22;27815;43.410;11.852;2023-02-18T07:34:50;8.00;70.40
42147;DHT22;27815;43.410;11.852;2023-02-18T07:38:54;8.10;70.50
42147;DHT22;27815;43.410;11.852;2023-02-18T07:42:57;8.10;70.30
42147;DHT22;27815;43.410;11.852;2023-02-18T07:47:00;8.10;70.40
42147;DHT22;27815;43.410;11.852;2023-02-18T07:51:08;8.20;70.40
42147;DHT22;27815;43.410;11.852;2023-02-18T07:55:11;8.20;70.50
42147;DHT22;27815;43.410;11.852;2023-02-18T07:59:14;8.20;70.30
42147;DHT22;27815;43.410;11.852;2023-02-18T08:03:17;8.40;70.20
42147;DHT22;27815;43.410;11.852;2023-02-18T08:07:22;8.40;70.30
42147;DHT22;27815;43.410;11.852;2023-02-18T08:11:25;8.50;70.20
42147;DHT22;27815;43.410;11.852;2023-02-18T08:15:31;8.60;70.00
42147;DHT22;27815;43.410;11.852;2023-02-18T08:19:34;8.80;70.00
42147;DHT22;27815;43.410;11.852;2023-02-18T08:23:36;8.90;70.00
42147;DHT22;27815;43.410;11.852;2023-02-18T08:27:39;9.00;70.30
42147;DHT22;27815;43.410;11.852;2023-02-18T08:31:43;9.00;70.40
42147;DHT22;27815;43.410;11.852;2023-02-18T08:35:50;9.00;70.50
42147;DHT22;27815;43.410;11.852;2023-02-18T08:39:53;9.10;70.40
42147;DHT22;27815;43.410;11.852;2023-02-18T08:43:56;9.10;70.50
42147;DHT22;27815;43.410;11.852;2023-02-18T08:47:59;9.20;70.40
42147;DHT22;27815;43.410;11.852;2023-02-18T08:52:21;9.40;70.10
42147;DHT22;27815;43.410;11.852;2023-02-18T08:56:24;9.70;69.80
42147;DHT22;27815;43.410;11.852;2023-02-18T09:00:27;9.70;69.80
42147;DHT22;27815;43.410;11.852;2023-02-18T09:04:30;9.90;69.80
42147;DHT22;27815;43.410;11.852;2023-02-18T09:08:33;10.00;69.70
42147;DHT22;27815;43.410;11.852;2023-02-18T09:12:36;10.00;70.00
42147;DHT22;27815;43.410;11.852;2023-02-18T09:16:40;9.90;70.10
42147;DHT22;27815;43.410;11.852;2023-02-18T09:20:43;9.90;70.20
42147;DHT22;27815;43.410;11.852;2023-02-18T09:24:45;10.00;70.10
42147;DHT22;27815;43.410;11.852;2023-02-18T09:28:49;10.00;70.00
42147;DHT22;27815;43.410;11.852;2023-02-18T09:32:52;10.10;69.70
42147;DHT22;27815;43.410;11.852;2023-02-18T09:37:00;10.20;69.50
42147;DHT22;27815;43.410;11.852;2023-02-18T09:41:08;10.40;69.20
42147;DHT22;27815;43.410;11.852;2023-02-18T09:45:12;10.50;68.90
42147;DHT22;27815;43.410;11.852;2023-02-18T09:49:21;10.60;68.60
42147;DHT22;27815;43.410;11.852;2023-02-18T09:53:25;10.70;68.20
42147;DHT22;27815;43.410;11.852;2023-02-18T09:57:34;10.70;68.00
42147;DHT22;27815;43.410;11.852;2023-02-18T10:01:42;10.80;67.80
42147;DHT22;27815;43.410;11.852;2023-02-18T10:10:27;11.00;67.80
42147;DHT22;27815;43.410;11.852;2023-02-18T10:14:32;11.20;67.40
42147;DHT22;27815;43.410;11.852;2023-02-18T10:18:42;11.50;67.00
42147;DHT22;27815;43.410;11.852;2023-02-18T10:22:53;11.50;66.80
42147;DHT22;27815;43.410;11.852;2023-02-18T10:26:57;11.60;66.80
42147;DHT22;27815;43.410;11.852;2023-02-18T10:31:05;11.70;66.60
42147;DHT22;27815;43.410;11.852;2023-02-18T10:35:39;11.80;66.60
42147;DHT22;27815;43.410;11.852;2023-02-18T10:52:34;12.00;65.80
42147;DHT22;27815;43.410;11.852;2023-02-18T10:56:48;12.00;65.50
42147;DHT22;27815;43.410;11.852;2023-02-18T11:00:51;12.00;65.30
42147;DHT22;27815;43.410;11.852;2023-02-18T11:04:56;12.00;65.20
42147;DHT22;27815;43.410;11.852;2023-02-18T11:09:01;12.10;65.10
42147;DHT22;27815;43.410;11.852;2023-02-18T11:13:09;12.10;65.00
42147;DHT22;27815;43.410;11.852;2023-02-18T11:17:20;12.20;64.90
42147;DHT22;27815;43.410;11.852;2023-02-18T11:21:34;12.30;64.90
42147;DHT22;27815;43.410;11.852;2023-02-18T11:25:39;12.30;64.90
42147;DHT22;27815;43.410;11.852;2023-02-18T11:29:43;12.40;65.00
42147;DHT22;27815;43.410;11.852;2023-02-18T11:33:50;12.40;65.00
42147;DHT22;27815;43.410;11.852;2023-02-18T11:37:57;12.40;65.10
42147;DHT22;27815;43.410;11.852;2023-02-18T11:42:03;12.30;65.10
42147;DHT22;27815;43.410;11.852;2023-02-18T11:50:21;12.10;65.40
42147;DHT22;27815;43.410;11.852;2023-02-18T11:54:27;12.10;65.60
42147;DHT22;27815;43.410;11.852;2023-02-18T11:58:40;12.10;65.50
42147;DHT22;27815;43.410;11.852;2023-02-18T12:02:44;12.10;65.60
42147;DHT22;27815;43.410;11.852;2023-02-18T12:07:16;12.10;65.80
42147;DHT22;27815;43.410;11.852;2023-02-18T12:11:30;12.10;65.90
42147;DHT22;27815;43.410;11.852;2023-02-18T12:21:04;12.10;66.20
42147;DHT22;27815;43.410;11.852;2023-02-18T12:43:21;12.00;67.30
42147;DHT22;27815;43.410;11.852;2023-02-18T13:00:23;12.00;68.20
42147;DHT22;27815;43.410;11.852;2023-02-18T13:04:39;12.10;68.90
42147;DHT22;27815;43.410;11.852;2023-02-18T13:09:27;12.10;68.70
42147;DHT22;27815;43.410;11.852;2023-02-18T13:13:36;12.30;68.70
42147;DHT22;27815;43.410;11.852;2023-02-18T13:17:42;12.30;68.70
42147;DHT22;27815;43.410;11.852;2023-02-18T13:21:48;12.30;68.60
42147;DHT22;27815;43.410;11.852;2023-02-18T13:26:02;12.40;68.60
42147;DHT22;27815;43.410;11.852;2023-02-18T13:30:20;12.30;69.10
42147;DHT22;27815;43.410;11.852;2023-02-18T13:34:56;12.30;69.70
42147;DHT22;27815;43.410;11.852;2023-02-18T13:39:11;12.30;70.00
42147;DHT22;27815;43.410;11.852;2023-02-18T13:43:30;12.30;70.10
42147;DHT22;27815;43.410;11.852;2023-02-18T13:47:45;12.30;69.90
42147;DHT22;27815;43.410;11.852;2023-02-18T13:51:54;12.30;70.00
42147;DHT22;27815;43.410;11.852;2023-02-18T14:00:33;12.30;69.70
42147;DHT22;27815;43.410;11.852;2023-02-18T14:04:52;12.20;70.30
42147;DHT22;27815;43.410;11.852;2023-02-18T14:13:23;12.10;71.20
42147;DHT22;27815;43.410;11.852;2023-02-18T14:17:33;12.00;71.30
42147;DHT22;27815;43.410;11.852;2023-02-18T14:21:41;12.00;71.30
42147;DHT22;27815;43.410;11.852;2023-02-18T14:30:39;12.00;71.50
42147;DHT22;27815;43.410;11.852;2023-02-18T14:35:05;11.90;71.80
42147;DHT22;27815;43.410;11.852;2023-02-18T14:43:58;11.80;71.90
42147;DHT22;27815;43.410;11.852;2023-02-18T14:52:36;11.80;72.50
42147;DHT22;27815;43.410;11.852;2023-02-18T14:56:52;11.80;72.60
42147;DHT22;27815;43.410;11.852;2023-02-18T15:00:56;11.70;72.70
42147;DHT22;27815;43.410;11.852;2023-02-18T15:05:21;11.70;73.00
42147;DHT22;27815;43.410;11.852;2023-02-18T15:09:24;11.70;73.00
42147;DHT22;27815;43.410;11.852;2023-02-18T15:13:30;11.60;73.00
42147;DHT22;27815;43.410;11.852;2023-02-18T15:17:33;11.60;73.00
42147;DHT22;27815;43.410;11.852;2023-02-18T15:21:39;11.60;73.10
42147;DHT22;27815;43.410;11.852;2023-02-18T15:25:48;11.60;73.30
42147;DHT22;27815;43.410;11.852;2023-02-18T15:29:57;11.60;73.70
42147;DHT22;27815;43.410;11.852;2023-02-18T15:34:00;11.50;74.00
42147;DHT22;27815;43.410;11.852;2023-02-18T15:38:03;11.50;74.10
42147;DHT22;27815;43.410;11.852;2023-02-18T15:42:30;11.50;74.10
42147;DHT22;27815;43.410;11.852;2023-02-18T15:46:33;11.50;74.20
42147;DHT22;27815;43.410;11.852;2023-02-18T15:50:43;11.40;74.30
42147;DHT22;27815;43.410;11.852;2023-02-18T15:54:51;11.40;74.40
42147;DHT22;27815;43.410;11.852;2023-02-18T15:59:19;11.30;74.30
42147;DHT22;27815;43.410;11.852;2023-02-18T16:03:32;11.40;74.40
42147;DHT22;27815;43.410;11.852;2023-02-18T16:07:51;11.30;74.30
42147;DHT22;27815;43.410;11.852;2023-02-18T16:11:57;11.30;74.50
42147;DHT22;27815;43.410;11.852;2023-02-18T16:16:01;11.20;74.50
42147;DHT22;27815;43.410;11.852;2023-02-18T16:24:29;11.20;74.60
42147;DHT22;27815;43.410;11.852;2023-02-18T16:28:34;11.10;74.70
42147;DHT22;27815;43.410;11.852;2023-02-18T16:32:37;11.10;74.70
42147;DHT22;27815;43.410;11.852;2023-02-18T16:36:40;11.10;74.80
42147;DHT22;27815;43.410;11.852;2023-02-18T16:41:03;11.00;74.90
42147;DHT22;27815;43.410;11.852;2023-02-18T16:45:07;11.00;74.90
42147;DHT22;27815;43.410;11.852;2023-02-18T16:49:13;11.00;75.10
42147;DHT22;27815;43.410;11.852;2023-02-18T16:53:17;11.00;75.30
42147;DHT22;27815;43.410;11.852;2023-02-18T16:57:23;10.90;75.40
42147;DHT22;27815;43.410;11.852;2023-02-18T17:01:29;10.90;75.50
42147;DHT22;27815;43.410;11.852;2023-02-18T17:05:33;10.90;75.60
42147;DHT22;27815;43.410;11.852;2023-02-18T17:09:42;10.80;75.70
42147;DHT22;27815;43.410;11.852;2023-02-18T17:13:47;10.80;75.80
42147;DHT22;27815;43.410;11.852;2023-02-18T17:18:11;10.80;75.70
42147;DHT22;27815;43.410;11.852;2023-02-18T17:22:14;10.90;75.70
42147;DHT22;27815;43.410;11.852;2023-02-18T17:26:21;10.80;75.80
42147;DHT22;27815;43.410;11.852;2023-02-18T17:30:26;10.80;76.00
42147;DHT22;27815;43.410;11.852;2023-02-18T17:34:29;10.80;75.90
42147;DHT22;27815;43.410;11.852;2023-02-18T17:38:34;10.80;76.00
42147;DHT22;27815;43.410;11.852;2023-02-18T17:42:37;10.80;76.10
42147;DHT22;27815;43.410;11.852;2023-02-18T17:46:39;10.90;76.10
42147;DHT22;27815;43.410;11.852;2023-02-18T17:50:42;10.80;76.00
42147;DHT22;27815;43.410;11.852;2023-02-18T17:54:45;10.90;76.00
42147;DHT22;27815;43.410;11.852;2023-02-18T17:58:48;10.80;76.00
42147;DHT22;27815;43.410;11.852;2023-02-18T18:02:51;10.80;76.00
42147;DHT22;27815;43.410;11.852;2023-02-18T18:06:54;10.80;76.10
42147;DHT22;27815;43.410;11.852;2023-02-18T18:10:59;10.80;76.20
42147;DHT22;27815;43.410;11.852;2023-02-18T18:19:19;10.90;76.10
42147;DHT22;27815;43.410;11.852;2023-02-18T18:23:22;10.80;76.00
42147;DHT22;27815;43.410;11.852;2023-02-18T18:27:25;10.90;76.00
42147;DHT22;27815;43.410;11.852;2023-02-18T18:31:27;10.90;76.00
42147;DHT22;27815;43.410;11.852;2023-02-18T18:35:33;10.80;75.90
42147;DHT22;27815;43.410;11.852;2023-02-18T18:45:00;10.90;76.10
42147;DHT22;27815;43.410;11.852;2023-02-18T18:49:03;10.80;76.00
42147;DHT22;27815;43.410;11.852;2023-02-18T18:53:25;10.90;76.00
42147;DHT22;27815;43.410;11.852;2023-02-18T18:57:29;10.90;75.90
42147;DHT22;27815;43.410;11.852;2023-02-18T19:01:32;10.80;75.80
42147;DHT22;27815;43.410;11.852;2023-02-18T19:05:37;10.80;76.00
42147;DHT22;27815;43.410;11.852;2023-02-18T19:09:40;10.80;75.80
42147;DHT22;27815;43.410;11.852;2023-02-18T19:13:43;10.90;75.90
42147;DHT22;27815;43.410;11.852;2023-02-18T19:17:49;10.90;75.90
42147;DHT22;27815;43.410;11.852;2023-02-18T19:21:52;10.90;75.80
42147;DHT22;27815;43.410;11.852;2023-02-18T19:25:56;10.90;75.80
42147;DHT22;27815;43.410;11.852;2023-02-18T19:29:59;10.90;75.80
42147;DHT22;27815;43.410;11.852;2023-02-18T19:34:02;10.90;75.70
42147;DHT22;27815;43.410;11.852;2023-02-18T19:38:11;10.90;75.60
42147;DHT22;27815;43.410;11.852;2023-02-18T19:42:14;10.90;75.60
42147;DHT22;27815;43.410;11.852;2023-02-18T19:46:19;10.90;75.50
42147;DHT22;27815;43.410;11.852;2023-02-18T19:50:22;10.90;75.50
42147;DHT22;27815;43.410;11.852;2023-02-18T19:54:26;10.90;75.50
42147;DHT22;27815;43.410;11.852;2023-02-18T19:58:29;10.90;75.30
42147;DHT22;27815;43.410;11.852;2023-02-18T20:02:32;10.90;75.20
42147;DHT22;27815;43.410;11.852;2023-02-18T20:06:35;11.00;75.00
42147;DHT22;27815;43.410;11.852;2023-02-18T20:10:39;11.00;74.80
42147;DHT22;27815;43.410;11.852;2023-02-18T20:29:58;11.00;74.30
42147;DHT22;27815;43.410;11.852;2023-02-18T20:34:01;11.00;74.30
42147;DHT22;27815;43.410;11.852;2023-02-18T20:38:03;11.00;74.40
42147;DHT22;27815;43.410;11.852;2023-02-18T20:42:06;11.00;74.40
42147;DHT22;27815;43.410;11.852;2023-02-18T20:46:19;11.00;74.30
42147;DHT22;27815;43.410;11.852;2023-02-18T20:50:23;11.00;74.30
42147;DHT22;27815;43.410;11.852;2023-02-18T20:54:32;11.00;74.30
42147;DHT22;27815;43.410;11.852;2023-02-18T20:58:35;11.00;74.30
42147;DHT22;27815;43.410;11.852;2023-02-18T21:02:38;11.00;74.30
42147;DHT22;27815;43.410;11.852;2023-02-18T21:06:41;10.90;74.30
42147;DHT22;27815;43.410;11.852;2023-02-18T21:10:46;11.00;74.40
42147;DHT22;27815;43.410;11.852;2023-02-18T21:14:49;10.90;74.40
42147;DHT22;27815;43.410;11.852;2023-02-18T21:19:26;10.90;74.40
42147;DHT22;27815;43.410;11.852;2023-02-18T21:23:29;10.90;74.40
42147;DHT22;27815;43.410;11.852;2023-02-18T21:27:36;10.90;74.50
42147;DHT22;27815;43.410;11.852;2023-02-18T21:31:41;10.90;74.40
42147;DHT22;27815;43.410;11.852;2023-02-18T21:35:45;11.00;74.40
42147;DHT22;27815;43.410;11.852;2023-02-18T21:39:52;10.90;74.30
42147;DHT22;27815;43.410;11.852;2023-02-18T21:44:00;10.90;74.20
42147;DHT22;27815;43.410;11.852;2023-02-18T21:48:34;11.00;74.20
42147;DHT22;27815;43.410;11.852;2023-02-18T21:54:03;11.00;74.20
42147;DHT22;27815;43.410;11.852;2023-02-18T21:58:47;10.90;74.30
42147;DHT22;27815;43.410;11.852;2023-02-18T22:03:22;10.90;74.20
42147;DHT22;27815;43.410;11.852;2023-02-18T22:07:40;11.00;74.10
42147;DHT22;27815;43.410;11.852;2023-02-18T22:12:27;11.00;74.00
42147;DHT22;27815;43.410;11.852;2023-02-18T22:16:52;11.00;73.90
42147;DHT22;27815;43.410;11.852;2023-02-18T22:20:55;11.00;73.80
42147;DHT22;27815;43.410;11.852;2023-02-18T22:25:02;11.00;73.70
42147;DHT22;27815;43.410;11.852;2023-02-18T22:29:06;11.00;73.70
42147;DHT22;27815;43.410;11.852;2023-02-18T22:33:44;11.00;73.60
42147;DHT22;27815;43.410;11.852;2023-02-18T22:38:23;11.00;73.60
42147;DHT22;27815;43.410;11.852;2023-02-18T22:42:30;10.90;73.70
42147;DHT22;27815;43.410;11.852;2023-02-18T22:47:15;10.90;73.80
42147;DHT22;27815;43.410;11.852;2023-02-18T22:51:22;10.90;73.90
42147;DHT22;27815;43.410;11.852;2023-02-18T22:55:44;10.90;74.00
42147;DHT22;27815;43.410;11.852;2023-02-18T23:00:58;10.90;73.90
42147;DHT22;27815;43.410;11.852;2023-02-18T23:05:23;10.90;73.70
42147;DHT22;27815;43.410;11.852;2023-02-18T23:09:55;10.90;73.60
42147;DHT22;27815;43.410;11.852;2023-02-18T23:14:37;11.00;73.60
42147;DHT22;27815;43.410;11.852;2023-02-18T23:19:18;10.90;73.60
42147;DHT22;27815;43.410;11.852;2023-02-18T23:23:59;11.00;73.60
42147;DHT22;27815;43.410;11.852;2023-02-18T23:28:57;10.90;73.60
42147;DHT22;27815;43.410;11.852;2023-02-18T23:33:31;10.90;73.50
42147;DHT22;27815;43.410;11.852;2023-02-18T23:38:31;10.90;73.50
42147;DHT22;27815;43.410;11.852;2023-02-18T23:42:56;11.00;73.40
42147;DHT22;27815;43.410;11.852;2023-02-18T23:47:37;11.00;73.30
42147;DHT22;27815;43.410;11.852;2023-02-18T23:52:25;11.00;73.20
42147;DHT22;27815;43.410;11.852;2023-02-18T23:56:57;11.00;73.00
